LWOH Airport Information

Runway Information
Runway 02 Length 8366 ft width 140 ft
Elevation 2284 ft Threshold 0 ft Heading 18
Runway 20 Length 8366 ft Width 140 ft
Elevation 2313 ft Threshold 0 ft Heading 198
Airport Frequencies
Type APP Name APP Frequency 119.2 MHZ
Type TWR Name TWR Frequency 119.2 MHZ
Airport Navaids
Type NDB Name Ohrid Frequency 432 KHZ
Type VOR-DME Name Ohrid Frequency 112500 KHZ
Airport Weather Information & NOTAM
ADDS - METARS form results

(1809 UTC 22 March 2019)
Data provider http://aviationweather.gov/metar/data/
 
METAR text: LWOH 221800Z 05011KT CAVOK 12/M05 Q1024
Conditions at: LWOH (OHRID , MK) observed 1800 UTC 22 March 2019
Temperature: 12.0°C (54°F)
Dewpoint: -5.0°C (23°F) [RH = 30%]
Pressure (altimeter): 30.24 inches Hg (1024.0 mb)
Winds: from the NE (50 degrees) at 13 MPH (11 knots; 5.7 m/s)
Visibility: 6 or more miles (10+ km)
Ceiling: ceiling and visibility are OK
Clouds: unknown
Weather: no significant weather observed at this time

METAR text: LWOH 221730Z 06007KT CAVOK 11/M06 Q1024
Conditions at: LWOH (OHRID , MK) observed 1730 UTC 22 March 2019
Temperature: 11.0°C (52°F)
Dewpoint: -6.0°C (21°F) [RH = 30%]
Pressure (altimeter): 30.24 inches Hg (1024.0 mb)
Winds: from the ENE (60 degrees) at 8 MPH (7 knots; 3.6 m/s)
Visibility: 6 or more miles (10+ km)
Ceiling: ceiling and visibility are OK
Clouds: unknown
Weather: no significant weather observed at this time

Forecast for: LWOH (OHRID , MK)
Text: TAF LWOH 221730Z 2218/2318 04008KT CAVOK
Forecast period: 1800 UTC 22 March 2019 to 1800 UTC 23 March 2019
Forecast type: FROM: standard forecast or significant change
Winds: from the NE (40 degrees) at 9 MPH (8 knots; 4.1 m/s)
Visibility: 6 or more miles 10+ km)
Ceiling: unknown
Clouds: missing
Weather: NSW  (no significant weather)